To NAV CANADA Home Page Login to a new session Search on AWWS site Feedback and Comments Disclaimer Vers la page française équivalente Tips FAQ What's new on the site To the Forecasts and Observations / NOTAM section To "File a Flight Plan" website Publications and other links Update of the User's profile FIC Telephone Numbers My Weather Data Folder Route Weather Data Regional Weather Data Local Weather Data To the Forecasts and Observations / NOTAM section
Request Generated 05/25/2017 at 01:13:12 UTC . Weather information available at that time is displayed.

METAR/TAF

THOMPSON/MB    

METAR CYTH 250100Z 17006G15KT 120V220 15SM SCT180 BKN210 20/01 A2951
RMK AC3CI4 SLP999 DENSITY ALT 1900FT=
METAR CYTH 250000Z 19010G22KT 15SM SCT180 OVC220 22/01 A2950 RMK
AC3CI5 SLP997 DENSITY ALT 2100FT=
METAR CYTH 242300Z 17008G21KT 130V210 15SM FEW180 BKN220 23/M03 A2949
RMK AC2CI4 SLP991 DENSITY ALT 2200FT=

TAF CYTH 250038Z 2501/2513 18010G20KT P6SM SCT180
BECMG 2506/2508 14005KT
RMK NXT FCST BY 250700Z=
Your time UTC time
Weather data provided by Environment Canada and NAV CANADA